sensor_id;sensor_type;location;lat;lon;timestamp;P1;durP1;ratioP1;P2;durP2;ratioP2
22415;SDS011;12204;50.600;4.608;2022-10-03T00:03:42;9.43;;;4.35;;
22415;SDS011;12204;50.600;4.608;2022-10-03T00:09:11;10.93;;;4.50;;
22415;SDS011;12204;50.600;4.608;2022-10-03T00:14:44;9.63;;;4.72;;
22415;SDS011;12204;50.600;4.608;2022-10-03T00:19:59;9.88;;;4.43;;
22415;SDS011;12204;50.600;4.608;2022-10-03T00:25:22;8.90;;;4.00;;
22415;SDS011;12204;50.600;4.608;2022-10-03T00:36:18;9.15;;;3.97;;
22415;SDS011;12204;50.600;4.608;2022-10-03T00:41:34;8.87;;;4.00;;
22415;SDS011;12204;50.600;4.608;2022-10-03T00:47:06;8.65;;;4.00;;
22415;SDS011;12204;50.600;4.608;2022-10-03T00:53:13;10.75;;;3.85;;
22415;SDS011;12204;50.600;4.608;2022-10-03T01:04:22;10.00;;;3.78;;
22415;SDS011;12204;50.600;4.608;2022-10-03T01:09:55;8.13;;;3.50;;
22415;SDS011;12204;50.600;4.608;2022-10-03T01:15:16;7.38;;;3.50;;
22415;SDS011;12204;50.600;4.608;2022-10-03T01:20:34;7.50;;;3.20;;
22415;SDS011;12204;50.600;4.608;2022-10-03T01:26:01;8.70;;;3.15;;
22415;SDS011;12204;50.600;4.608;2022-10-03T01:31:39;7.57;;;2.83;;
22415;SDS011;12204;50.600;4.608;2022-10-03T01:36:53;6.65;;;2.92;;
22415;SDS011;12204;50.600;4.608;2022-10-03T01:42:13;6.65;;;2.80;;
22415;SDS011;12204;50.600;4.608;2022-10-03T01:47:34;6.38;;;2.90;;
22415;SDS011;12204;50.600;4.608;2022-10-03T01:52:53;9.43;;;2.60;;
22415;SDS011;12204;50.600;4.608;2022-10-03T01:58:10;6.23;;;2.63;;
22415;SDS011;12204;50.600;4.608;2022-10-03T02:03:25;7.03;;;2.83;;
22415;SDS011;12204;50.600;4.608;2022-10-03T02:08:41;6.90;;;2.50;;
22415;SDS011;12204;50.600;4.608;2022-10-03T02:14:06;6.13;;;2.60;;
22415;SDS011;12204;50.600;4.608;2022-10-03T02:19:28;5.35;;;2.55;;
22415;SDS011;12204;50.600;4.608;2022-10-03T02:24:41;5.50;;;2.17;;
22415;SDS011;12204;50.600;4.608;2022-10-03T02:29:59;5.72;;;2.35;;
22415;SDS011;12204;50.600;4.608;2022-10-03T02:35:42;6.75;;;2.50;;
22415;SDS011;12204;50.600;4.608;2022-10-03T02:41:45;5.90;;;2.22;;
22415;SDS011;12204;50.600;4.608;2022-10-03T02:54:05;5.63;;;2.10;;
22415;SDS011;12204;50.600;4.608;2022-10-03T03:00:02;5.75;;;1.90;;
22415;SDS011;12204;50.600;4.608;2022-10-03T03:05:23;6.30;;;2.22;;
22415;SDS011;12204;50.600;4.608;2022-10-03T03:10:51;5.63;;;2.00;;
22415;SDS011;12204;50.600;4.608;2022-10-03T03:16:45;4.55;;;2.08;;
22415;SDS011;12204;50.600;4.608;2022-10-03T03:22:10;4.10;;;1.77;;
22415;SDS011;12204;50.600;4.608;2022-10-03T03:27:40;9.65;;;1.98;;
22415;SDS011;12204;50.600;4.608;2022-10-03T03:33:00;4.00;;;1.60;;
22415;SDS011;12204;50.600;4.608;2022-10-03T03:38:18;5.07;;;1.70;;
22415;SDS011;12204;50.600;4.608;2022-10-03T03:43:44;5.03;;;1.70;;
22415;SDS011;12204;50.600;4.608;2022-10-03T03:49:30;4.13;;;1.45;;
22415;SDS011;12204;50.600;4.608;2022-10-03T03:55:02;5.65;;;1.83;;
22415;SDS011;12204;50.600;4.608;2022-10-03T04:00:29;6.20;;;1.50;;
22415;SDS011;12204;50.600;4.608;2022-10-03T04:11:16;4.65;;;1.63;;
22415;SDS011;12204;50.600;4.608;2022-10-03T04:16:39;3.88;;;1.45;;
22415;SDS011;12204;50.600;4.608;2022-10-03T04:22:20;2.85;;;1.30;;
22415;SDS011;12204;50.600;4.608;2022-10-03T04:27:59;5.38;;;1.35;;
22415;SDS011;12204;50.600;4.608;2022-10-03T04:33:30;3.92;;;1.40;;
22415;SDS011;12204;50.600;4.608;2022-10-03T04:38:50;6.30;;;1.30;;
22415;SDS011;12204;50.600;4.608;2022-10-03T04:44:08;4.35;;;1.25;;
22415;SDS011;12204;50.600;4.608;2022-10-03T04:49:40;4.85;;;1.30;;
22415;SDS011;12204;50.600;4.608;2022-10-03T04:54:50;4.80;;;1.30;;
22415;SDS011;12204;50.600;4.608;2022-10-03T05:00:13;6.03;;;1.13;;
22415;SDS011;12204;50.600;4.608;2022-10-03T05:05:34;4.88;;;1.35;;
22415;SDS011;12204;50.600;4.608;2022-10-03T05:10:54;2.03;;;1.05;;
22415;SDS011;12204;50.600;4.608;2022-10-03T05:16:26;3.85;;;1.20;;
22415;SDS011;12204;50.600;4.608;2022-10-03T05:21:43;3.10;;;1.30;;
22415;SDS011;12204;50.600;4.608;2022-10-03T05:26:58;2.88;;;1.17;;
22415;SDS011;12204;50.600;4.608;2022-10-03T05:37:37;2.42;;;1.20;;
22415;SDS011;12204;50.600;4.608;2022-10-03T05:43:27;3.10;;;1.08;;
22415;SDS011;12204;50.600;4.608;2022-10-03T05:48:52;1.85;;;1.02;;
22415;SDS011;12204;50.600;4.608;2022-10-03T05:54:11;2.72;;;1.00;;
22415;SDS011;12204;50.600;4.608;2022-10-03T06:00:09;3.08;;;1.05;;
22415;SDS011;12204;50.600;4.608;2022-10-03T06:05:29;2.95;;;0.95;;
22415;SDS011;12204;50.600;4.608;2022-10-03T06:10:45;1.75;;;0.85;;
22415;SDS011;12204;50.600;4.608;2022-10-03T06:15:56;2.10;;;1.10;;
22415;SDS011;12204;50.600;4.608;2022-10-03T07:00:04;1.60;;;0.93;;
22415;SDS011;12204;50.600;4.608;2022-10-03T07:11:20;2.17;;;1.00;;
22415;SDS011;12204;50.600;4.608;2022-10-03T07:22:46;1.83;;;0.90;;
22415;SDS011;12204;50.600;4.608;2022-10-03T07:42:02;15.20;;;3.97;;
22415;SDS011;12204;50.600;4.608;2022-10-03T07:47:47;9.15;;;3.53;;
22415;SDS011;12204;50.600;4.608;2022-10-03T07:53:57;8.40;;;3.95;;
22415;SDS011;12204;50.600;4.608;2022-10-03T07:59:38;10.90;;;3.45;;
22415;SDS011;12204;50.600;4.608;2022-10-03T08:05:21;8.27;;;3.60;;
22415;SDS011;12204;50.600;4.608;2022-10-03T08:10:49;9.30;;;3.47;;
22415;SDS011;12204;50.600;4.608;2022-10-03T08:16:43;6.43;;;3.28;;
22415;SDS011;12204;50.600;4.608;2022-10-03T08:22:36;7.57;;;3.25;;
22415;SDS011;12204;50.600;4.608;2022-10-03T08:28:07;10.05;;;2.92;;
22415;SDS011;12204;50.600;4.608;2022-10-03T08:40:42;15.48;;;2.70;;
22415;SDS011;12204;50.600;4.608;2022-10-03T08:53:23;9.82;;;2.70;;
22415;SDS011;12204;50.600;4.608;2022-10-03T09:16:06;10.27;;;2.80;;
22415;SDS011;12204;50.600;4.608;2022-10-03T09:22:04;7.60;;;2.50;;
22415;SDS011;12204;50.600;4.608;2022-10-03T09:27:55;7.53;;;2.40;;
22415;SDS011;12204;50.600;4.608;2022-10-03T09:45:41;6.22;;;2.10;;
22415;SDS011;12204;50.600;4.608;2022-10-03T09:52:20;5.82;;;2.00;;
22415;SDS011;12204;50.600;4.608;2022-10-03T10:10:51;5.90;;;2.00;;
22415;SDS011;12204;50.600;4.608;2022-10-03T11:37:28;4.13;;;1.52;;
22415;SDS011;12204;50.600;4.608;2022-10-03T11:42:47;3.75;;;1.50;;
22415;SDS011;12204;50.600;4.608;2022-10-03T11:53:43;3.63;;;1.50;;
22415;SDS011;12204;50.600;4.608;2022-10-03T11:58:54;3.05;;;1.40;;
22415;SDS011;12204;50.600;4.608;2022-10-03T12:04:29;3.55;;;1.50;;
22415;SDS011;12204;50.600;4.608;2022-10-03T12:09:54;4.38;;;1.73;;
22415;SDS011;12204;50.600;4.608;2022-10-03T12:15:12;4.35;;;1.58;;
22415;SDS011;12204;50.600;4.608;2022-10-03T12:20:34;4.05;;;1.77;;
22415;SDS011;12204;50.600;4.608;2022-10-03T12:26:05;4.88;;;1.70;;
22415;SDS011;12204;50.600;4.608;2022-10-03T12:31:18;3.88;;;1.50;;
22415;SDS011;12204;50.600;4.608;2022-10-03T12:36:33;3.65;;;1.50;;
22415;SDS011;12204;50.600;4.608;2022-10-03T12:41:55;3.40;;;1.60;;
22415;SDS011;12204;50.600;4.608;2022-10-03T12:47:23;4.32;;;1.50;;
22415;SDS011;12204;50.600;4.608;2022-10-03T12:53:01;5.70;;;1.60;;
22415;SDS011;12204;50.600;4.608;2022-10-03T12:58:28;3.88;;;1.52;;
22415;SDS011;12204;50.600;4.608;2022-10-03T13:03:45;4.40;;;1.40;;
22415;SDS011;12204;50.600;4.608;2022-10-03T13:09:01;3.17;;;1.30;;
22415;SDS011;12204;50.600;4.608;2022-10-03T13:14:25;4.47;;;1.40;;
22415;SDS011;12204;50.600;4.608;2022-10-03T13:20:31;4.32;;;1.30;;
22415;SDS011;12204;50.600;4.608;2022-10-03T13:25:41;3.58;;;1.45;;
22415;SDS011;12204;50.600;4.608;2022-10-03T13:30:55;4.10;;;1.55;;
22415;SDS011;12204;50.600;4.608;2022-10-03T13:36:08;3.80;;;1.40;;
22415;SDS011;12204;50.600;4.608;2022-10-03T13:41:25;3.40;;;1.47;;
22415;SDS011;12204;50.600;4.608;2022-10-03T13:46:39;4.13;;;1.30;;
22415;SDS011;12204;50.600;4.608;2022-10-03T13:51:50;3.45;;;1.40;;
22415;SDS011;12204;50.600;4.608;2022-10-03T13:57:02;4.68;;;1.48;;
22415;SDS011;12204;50.600;4.608;2022-10-03T14:02:20;3.35;;;1.35;;
22415;SDS011;12204;50.600;4.608;2022-10-03T14:07:50;3.58;;;1.33;;
22415;SDS011;12204;50.600;4.608;2022-10-03T14:13:10;3.10;;;1.40;;
22415;SDS011;12204;50.600;4.608;2022-10-03T14:18:29;5.53;;;1.40;;
22415;SDS011;12204;50.600;4.608;2022-10-03T14:23:47;2.88;;;1.30;;
22415;SDS011;12204;50.600;4.608;2022-10-03T14:29:02;2.72;;;1.30;;
22415;SDS011;12204;50.600;4.608;2022-10-03T14:34:20;2.95;;;1.40;;
22415;SDS011;12204;50.600;4.608;2022-10-03T14:39:44;2.22;;;1.00;;
22415;SDS011;12204;50.600;4.608;2022-10-03T14:45:02;4.22;;;1.40;;
22415;SDS011;12204;50.600;4.608;2022-10-03T14:50:13;2.63;;;1.30;;
22415;SDS011;12204;50.600;4.608;2022-10-03T14:55:22;2.72;;;1.33;;
22415;SDS011;12204;50.600;4.608;2022-10-03T15:00:37;3.35;;;1.30;;
22415;SDS011;12204;50.600;4.608;2022-10-03T15:05:55;3.33;;;1.40;;
22415;SDS011;12204;50.600;4.608;2022-10-03T15:11:34;2.85;;;1.20;;
22415;SDS011;12204;50.600;4.608;2022-10-03T15:16:50;3.70;;;1.50;;
22415;SDS011;12204;50.600;4.608;2022-10-03T15:21:59;3.72;;;1.30;;
22415;SDS011;12204;50.600;4.608;2022-10-03T15:27:22;2.10;;;1.17;;
22415;SDS011;12204;50.600;4.608;2022-10-03T15:32:31;3.72;;;1.25;;
22415;SDS011;12204;50.600;4.608;2022-10-03T15:37:40;2.72;;;1.20;;
22415;SDS011;12204;50.600;4.608;2022-10-03T15:42:48;2.47;;;1.20;;
22415;SDS011;12204;50.600;4.608;2022-10-03T15:48:09;2.80;;;1.15;;
22415;SDS011;12204;50.600;4.608;2022-10-03T15:53:19;2.95;;;1.30;;
22415;SDS011;12204;50.600;4.608;2022-10-03T15:58:42;3.10;;;1.20;;
22415;SDS011;12204;50.600;4.608;2022-10-03T16:03:54;3.05;;;1.25;;
22415;SDS011;12204;50.600;4.608;2022-10-03T16:09:03;2.53;;;1.10;;
22415;SDS011;12204;50.600;4.608;2022-10-03T16:14:15;3.10;;;1.20;;
22415;SDS011;12204;50.600;4.608;2022-10-03T16:19:28;3.10;;;1.20;;
22415;SDS011;12204;50.600;4.608;2022-10-03T16:24:40;2.75;;;1.10;;
22415;SDS011;12204;50.600;4.608;2022-10-03T16:29:58;2.92;;;1.20;;
22415;SDS011;12204;50.600;4.608;2022-10-03T16:40:39;3.37;;;1.30;;
22415;SDS011;12204;50.600;4.608;2022-10-03T16:45:43;3.45;;;1.40;;
22415;SDS011;12204;50.600;4.608;2022-10-03T16:50:51;5.53;;;1.52;;
22415;SDS011;12204;50.600;4.608;2022-10-03T16:55:56;3.88;;;1.20;;
22415;SDS011;12204;50.600;4.608;2022-10-03T17:01:09;4.38;;;1.35;;
22415;SDS011;12204;50.600;4.608;2022-10-03T17:06:30;6.85;;;1.70;;
22415;SDS011;12204;50.600;4.608;2022-10-03T17:11:37;5.40;;;1.60;;
22415;SDS011;12204;50.600;4.608;2022-10-03T17:16:44;5.25;;;1.50;;
22415;SDS011;12204;50.600;4.608;2022-10-03T17:21:55;12.70;;;1.85;;
22415;SDS011;12204;50.600;4.608;2022-10-03T17:27:13;11.60;;;2.20;;
22415;SDS011;12204;50.600;4.608;2022-10-03T17:32:26;11.85;;;2.28;;
22415;SDS011;12204;50.600;4.608;2022-10-03T17:38:00;11.35;;;1.98;;
22415;SDS011;12204;50.600;4.608;2022-10-03T17:43:41;10.93;;;2.10;;
22415;SDS011;12204;50.600;4.608;2022-10-03T17:48:51;13.50;;;2.00;;
22415;SDS011;12204;50.600;4.608;2022-10-03T17:54:08;8.75;;;1.83;;
22415;SDS011;12204;50.600;4.608;2022-10-03T17:59:18;9.20;;;1.90;;
22415;SDS011;12204;50.600;4.608;2022-10-03T18:04:29;10.63;;;2.00;;
22415;SDS011;12204;50.600;4.608;2022-10-03T18:09:42;9.18;;;1.90;;
22415;SDS011;12204;50.600;4.608;2022-10-03T18:20:39;6.93;;;1.65;;
22415;SDS011;12204;50.600;4.608;2022-10-03T18:25:51;10.48;;;1.70;;
22415;SDS011;12204;50.600;4.608;2022-10-03T18:31:21;7.65;;;1.50;;
22415;SDS011;12204;50.600;4.608;2022-10-03T18:36:33;7.40;;;1.88;;
22415;SDS011;12204;50.600;4.608;2022-10-03T18:41:46;5.75;;;1.50;;
22415;SDS011;12204;50.600;4.608;2022-10-03T18:46:56;12.30;;;1.60;;
22415;SDS011;12204;50.600;4.608;2022-10-03T18:52:18;8.68;;;1.42;;
22415;SDS011;12204;50.600;4.608;2022-10-03T18:57:28;6.00;;;1.50;;
22415;SDS011;12204;50.600;4.608;2022-10-03T19:02:39;7.93;;;1.63;;
22415;SDS011;12204;50.600;4.608;2022-10-03T19:07:51;7.35;;;1.40;;
22415;SDS011;12204;50.600;4.608;2022-10-03T19:13:14;7.57;;;1.40;;
22415;SDS011;12204;50.600;4.608;2022-10-03T19:18:30;6.32;;;1.38;;
22415;SDS011;12204;50.600;4.608;2022-10-03T19:23:44;5.22;;;1.38;;
22415;SDS011;12204;50.600;4.608;2022-10-03T19:28:55;8.15;;;1.50;;
22415;SDS011;12204;50.600;4.608;2022-10-03T19:34:06;5.15;;;1.42;;
22415;SDS011;12204;50.600;4.608;2022-10-03T19:39:20;7.93;;;1.63;;
22415;SDS011;12204;50.600;4.608;2022-10-03T19:44:26;4.93;;;1.30;;
22415;SDS011;12204;50.600;4.608;2022-10-03T19:54:50;4.20;;;1.30;;
22415;SDS011;12204;50.600;4.608;2022-10-03T20:00:04;6.97;;;1.88;;
22415;SDS011;12204;50.600;4.608;2022-10-03T20:05:23;6.90;;;1.50;;
22415;SDS011;12204;50.600;4.608;2022-10-03T20:10:40;5.88;;;1.60;;
22415;SDS011;12204;50.600;4.608;2022-10-03T20:15:59;5.43;;;1.60;;
22415;SDS011;12204;50.600;4.608;2022-10-03T20:21:08;6.00;;;1.65;;
22415;SDS011;12204;50.600;4.608;2022-10-03T20:26:16;6.20;;;1.47;;
22415;SDS011;12204;50.600;4.608;2022-10-03T20:31:30;5.25;;;1.40;;
22415;SDS011;12204;50.600;4.608;2022-10-03T20:36:37;7.55;;;1.40;;
22415;SDS011;12204;50.600;4.608;2022-10-03T20:41:48;6.20;;;1.50;;
22415;SDS011;12204;50.600;4.608;2022-10-03T20:47:04;9.38;;;1.70;;
22415;SDS011;12204;50.600;4.608;2022-10-03T20:52:15;11.90;;;1.70;;
22415;SDS011;12204;50.600;4.608;2022-10-03T21:02:30;11.55;;;1.85;;
22415;SDS011;12204;50.600;4.608;2022-10-03T21:07:42;9.77;;;1.65;;
22415;SDS011;12204;50.600;4.608;2022-10-03T21:12:54;14.02;;;2.15;;
22415;SDS011;12204;50.600;4.608;2022-10-03T21:18:03;8.82;;;2.10;;
22415;SDS011;12204;50.600;4.608;2022-10-03T21:23:12;12.45;;;2.05;;
22415;SDS011;12204;50.600;4.608;2022-10-03T21:28:24;9.65;;;1.90;;
22415;SDS011;12204;50.600;4.608;2022-10-03T21:33:37;8.05;;;1.85;;
22415;SDS011;12204;50.600;4.608;2022-10-03T21:38:50;9.85;;;2.00;;
22415;SDS011;12204;50.600;4.608;2022-10-03T21:43:54;8.43;;;1.75;;
22415;SDS011;12204;50.600;4.608;2022-10-03T21:49:29;6.53;;;1.80;;
22415;SDS011;12204;50.600;4.608;2022-10-03T21:54:54;6.75;;;1.92;;
22415;SDS011;12204;50.600;4.608;2022-10-03T22:00:55;6.20;;;1.75;;
22415;SDS011;12204;50.600;4.608;2022-10-03T22:06:14;5.85;;;1.73;;
22415;SDS011;12204;50.600;4.608;2022-10-03T22:11:28;6.20;;;1.88;;
22415;SDS011;12204;50.600;4.608;2022-10-03T22:16:44;9.05;;;1.70;;
22415;SDS011;12204;50.600;4.608;2022-10-03T22:22:04;4.78;;;1.80;;
22415;SDS011;12204;50.600;4.608;2022-10-03T22:27:36;8.60;;;1.98;;
22415;SDS011;12204;50.600;4.608;2022-10-03T22:32:53;5.05;;;1.75;;
22415;SDS011;12204;50.600;4.608;2022-10-03T22:38:13;4.88;;;1.55;;
22415;SDS011;12204;50.600;4.608;2022-10-03T22:43:18;5.43;;;1.70;;
22415;SDS011;12204;50.600;4.608;2022-10-03T22:48:23;7.57;;;1.77;;
22415;SDS011;12204;50.600;4.608;2022-10-03T22:53:34;5.25;;;1.70;;
22415;SDS011;12204;50.600;4.608;2022-10-03T22:58:41;4.82;;;1.80;;
22415;SDS011;12204;50.600;4.608;2022-10-03T23:03:44;7.93;;;1.90;;
22415;SDS011;12204;50.600;4.608;2022-10-03T23:08:52;7.82;;;1.77;;
22415;SDS011;12204;50.600;4.608;2022-10-03T23:14:09;5.65;;;1.80;;
22415;SDS011;12204;50.600;4.608;2022-10-03T23:19:28;4.75;;;1.70;;
22415;SDS011;12204;50.600;4.608;2022-10-03T23:24:49;4.25;;;1.45;;
22415;SDS011;12204;50.600;4.608;2022-10-03T23:35:53;4.50;;;1.70;;
22415;SDS011;12204;50.600;4.608;2022-10-03T23:41:00;7.85;;;1.70;;
22415;SDS011;12204;50.600;4.608;2022-10-03T23:46:07;4.07;;;1.50;;
22415;SDS011;12204;50.600;4.608;2022-10-03T23:51:17;4.88;;;1.80;;
22415;SDS011;12204;50.600;4.608;2022-10-03T23:56:29;6.03;;;1.80;;
